Obercorn, Luxembourg
Current Conditions -  °F | °C
As of 5:50 PM on Friday 28 Nov 2014 (Local Time) from ELLX Reporting Station
Clear Clear  
Wind Chill: 34°   Ceiling: Unl
Heat Index: 39°   Visibility: 4mi
Dew Point: 37°   Wind: 7mph
Humidity: 93%   Direction: 70°ENE
Pressure: 29.77"   Gusts: NA
Location:  49.51°N, 5.9°E
Report Text: ELLX 281650Z 07006KT 020V130 6000 NSC 04/03 Q1008 NOSIG
Loading
Personal Weather Stations






























Interactive Weather Map New forecast layout! Learn more

10-Day Weather Forecast

Advertisements
Track Severe Weather on mobile